Time;durP1;ratioP1;P1;durP2;ratioP2;P2;SDS_P1;SDS_P2;PMS_P1;PMS_P2;Temp;Humidity;BMP_temperature;BMP_pressure;BME280_temperature;BME280_humidity;BME280_pressure;Samples;Min_cycle;Max_cycle;Signal;HPM_P1;HPM_P2
2022/12/30 00:00:36;;;;;;;;;;;;;;;;;;5023944;28;19924;-79
2022/12/30 00:03:08;;;;;;;;;;;;;;;;;;5022461;28;19925;-79
2022/12/30 00:05:36;;;;;;;;;;;;;;;;;;5025024;28;19925;-80
2022/12/30 00:08:03;;;;;;;;;;;;;;;;;;5018859;28;20385;-79
2022/12/30 00:10:31;;;;;;;;;;;;;;;;;;5023059;28;20369;-79
2022/12/30 00:35:29;;;;;;;;;;;;;;;;;;5051826;28;19924;-79
2022/12/30 00:37:57;;;;;;;;;;;;;;;;;;5019952;28;19928;-79
2022/12/30 00:40:25;;;;;;;;;;;;;;;;;;5023343;28;19921;-79
2022/12/30 00:43:08;;;;;;;;;;;;;;;;;;5024504;28;19921;-80
2022/12/30 00:45:41;;;;;;;;;;;;;;;;;;5013272;28;19921;-79
2022/12/30 00:56:44;;;;;;;;;;;;;;;;;;5054430;28;19927;-79
2022/12/30 00:59:12;;;;;;;;;;;;;;;;;;5024912;28;19925;-79
2022/12/30 01:01:44;;;;;;;;;;;;;;;;;;5025133;28;19933;-79
2022/12/30 01:04:17;;;;;;;;;;;;;;;;;;5055263;28;19933;-78
2022/12/30 01:06:44;;;;;;;;;;;;;;;;;;5024845;28;20353;-79
2022/12/30 01:09:17;;;;;;;;;;;;;;;;;;5026435;28;19948;-79
2022/12/30 01:11:44;;;;;;;;;;;;;;;;;;5021838;28;19928;-79
2022/12/30 01:14:17;;;;;;;;;;;;;;;;;;5023731;28;19925;-79
2022/12/30 01:16:44;;;;;;;;;;;;;;;;;;5023344;28;19932;-78
2022/12/30 01:19:11;;;;;;;;;;;;;;;;;;5037995;28;19940;-79
2022/12/30 01:21:44;;;;;;;;;;;;;;;;;;5021617;28;19947;-79
2022/12/30 01:24:16;;;;;;;;;;;;;;;;;;5039232;28;19962;-79
2022/12/30 01:26:44;;;;;;;;;;;;;;;;;;5024711;28;19921;-79
2022/12/30 01:29:16;;;;;;;;;;;;;;;;;;5022934;28;19932;-78
2022/12/30 01:31:44;;;;;;;;;;;;;;;;;;5021228;28;19935;-79
2022/12/30 01:34:16;;;;;;;;;;;;;;;;;;5051684;28;19929;-79
2022/12/30 01:36:49;;;;;;;;;;;;;;;;;;5022573;28;19921;-79
2022/12/30 01:39:22;;;;;;;;;;;;;;;;;;5020865;28;19929;-79
2022/12/30 01:41:49;;;;;;;;;;;;;;;;;;5024599;28;19940;-79
2022/12/30 01:44:17;;;;;;;;;;;;;;;;;;5023162;28;19925;-79
2022/12/30 01:46:44;;;;;;;;;;;;;;;;;;5022274;28;19944;-79
2022/12/30 01:49:17;;;;;;;;;;;;;;;;;;5020393;28;19936;-79
2022/12/30 01:51:44;;;;;;;;;;;;;;;;;;5022939;28;19932;-79
2022/12/30 01:54:17;;;;;;;;;;;;;;;;;;5019325;28;19926;-79
2022/12/30 01:56:49;;;;;;;;;;;;;;;;;;5022452;28;19921;-79
2022/12/30 01:59:23;;;;;;;;;;;;;;;;;;5024111;28;19925;-79
2022/12/30 02:01:56;;;;;;;;;;;;;;;;;;5028773;28;19925;-79
2022/12/30 02:04:28;;;;;;;;;;;;;;;;;;5055082;28;19944;-79
2022/12/30 02:06:56;;;;;;;;;;;;;;;;;;5020951;28;19930;-78
2022/12/30 02:09:28;;;;;;;;;;;;;;;;;;5023947;28;19936;-79
2022/12/30 02:12:01;;;;;;;;;;;;;;;;;;5014913;28;19925;-79
2022/12/30 02:14:33;;;;;;;;;;;;;;;;;;5021327;28;19921;-79
2022/12/30 02:17:06;;;;;;;;;;;;;;;;;;5049873;28;19921;-79
2022/12/30 02:19:33;;;;;;;;;;;;;;;;;;5022840;28;19936;-80
2022/12/30 02:22:01;;;;;;;;;;;;;;;;;;5024461;28;19925;-79
2022/12/30 02:24:28;;;;;;;;;;;;;;;;;;5022571;28;19924;-79
2022/12/30 02:27:01;;;;;;;;;;;;;;;;;;5022339;28;19928;-80
2022/12/30 02:29:28;;;;;;;;;;;;;;;;;;5021895;28;20247;-79
2022/12/30 02:31:56;;;;;;;;;;;;;;;;;;5022787;28;19928;-79
2022/12/30 02:34:28;;;;;;;;;;;;;;;;;;5055090;28;20305;-79
2022/12/30 02:37:01;;;;;;;;;;;;;;;;;;5021028;28;19959;-79
2022/12/30 02:39:33;;;;;;;;;;;;;;;;;;5022045;28;20290;-79
2022/12/30 02:44:56;;;;;;;;;;;;;;;;;;5052803;28;19929;-79
2022/12/30 02:47:29;;;;;;;;;;;;;;;;;;5053496;28;19929;-79
2022/12/30 02:52:46;;;;;;;;;;;;;;;;;;4985632;28;19924;-78
2022/12/30 02:55:13;;;;;;;;;;;;;;;;;;5017325;28;19928;-79
2022/12/30 02:57:46;;;;;;;;;;;;;;;;;;5020956;28;19932;-79
2022/12/30 03:05:59;;;;;;;;;;;;;;;;;;5053808;28;19921;-79
2022/12/30 03:08:27;;;;;;;;;;;;;;;;;;5023835;28;19928;-79
2022/12/30 03:13:45;;;;;;;;;;;;;;;;;;5021963;28;19921;-79
2022/12/30 03:16:12;;;;;;;;;;;;;;;;;;5022064;28;19921;-79
2022/12/30 03:18:45;;;;;;;;;;;;;;;;;;5027346;28;19960;-80
2022/12/30 03:21:12;;;;;;;;;;;;;;;;;;5015699;28;20413;-79
2022/12/30 03:29:21;;;;;;;;;;;;;;;;;;5021353;28;19925;-79
2022/12/30 03:31:53;;;;;;;;;;;;;;;;;;5025934;28;20357;-79
2022/12/30 03:34:26;;;;;;;;;;;;;;;;;;5036560;28;19948;-79
2022/12/30 03:36:58;;;;;;;;;;;;;;;;;;5020421;28;19932;-79
2022/12/30 03:39:31;;;;;;;;;;;;;;;;;;5018961;28;19925;-79
2022/12/30 03:42:03;;;;;;;;;;;;;;;;;;5023218;28;19928;-79
2022/12/30 03:44:31;;;;;;;;;;;;;;;;;;5037940;28;19932;-79
2022/12/30 03:46:58;;;;;;;;;;;;;;;;;;5019377;28;19925;-79
2022/12/30 03:49:26;;;;;;;;;;;;;;;;;;5023734;28;19932;-78
2022/12/30 03:51:53;;;;;;;;;;;;;;;;;;5024598;28;19921;-79
2022/12/30 03:54:26;;;;;;;;;;;;;;;;;;5026777;28;19925;-79
2022/12/30 03:56:53;;;;;;;;;;;;;;;;;;5019764;28;19921;-79
2022/12/30 03:59:21;;;;;;;;;;;;;;;;;;5017380;28;19921;-79
2022/12/30 04:01:48;;;;;;;;;;;;;;;;;;5028171;28;19936;-79
2022/12/30 04:04:19;;;;;;;;;;;;;;;;;;5019551;28;19926;-79
2022/12/30 04:06:46;;;;;;;;;;;;;;;;;;5036971;28;19925;-80
2022/12/30 04:09:14;;;;;;;;;;;;;;;;;;5020982;28;20279;-79
2022/12/30 04:11:46;;;;;;;;;;;;;;;;;;5021236;28;20366;-79
2022/12/30 04:14:19;;;;;;;;;;;;;;;;;;5019267;28;20598;-79
2022/12/30 04:16:51;;;;;;;;;;;;;;;;;;5020035;28;19925;-79
2022/12/30 04:19:24;;;;;;;;;;;;;;;;;;5021593;28;19922;-79
2022/12/30 04:21:56;;;;;;;;;;;;;;;;;;5025590;28;19922;-79
2022/12/30 04:24:24;;;;;;;;;;;;;;;;;;5025696;28;19928;-79
2022/12/30 04:26:51;;;;;;;;;;;;;;;;;;5022390;28;19922;-79
2022/12/30 04:29:19;;;;;;;;;;;;;;;;;;5026040;28;19925;-79
2022/12/30 04:31:46;;;;;;;;;;;;;;;;;;5023974;28;19932;-79
2022/12/30 04:34:14;;;;;;;;;;;;;;;;;;5023650;28;19922;-79
2022/12/30 04:36:42;;;;;;;;;;;;;;;;;;5021766;28;19924;-80
2022/12/30 04:39:14;;;;;;;;;;;;;;;;;;5024445;28;19928;-79
2022/12/30 04:41:42;;;;;;;;;;;;;;;;;;5021539;28;19928;-78
2022/12/30 04:44:09;;;;;;;;;;;;;;;;;;5024388;28;19922;-80
2022/12/30 04:46:42;;;;;;;;;;;;;;;;;;5033028;28;19921;-79
2022/12/30 04:49:14;;;;;;;;;;;;;;;;;;5024131;28;19928;-79
2022/12/30 04:51:42;;;;;;;;;;;;;;;;;;5025705;28;19944;-79
2022/12/30 04:54:14;;;;;;;;;;;;;;;;;;5020599;28;19928;-79
2022/12/30 04:56:47;;;;;;;;;;;;;;;;;;5022966;28;19921;-79
2022/12/30 04:59:19;;;;;;;;;;;;;;;;;;5024627;28;19925;-79
2022/12/30 05:01:52;;;;;;;;;;;;;;;;;;5024834;28;19928;-79
2022/12/30 05:04:24;;;;;;;;;;;;;;;;;;5024870;28;19921;-78
2022/12/30 05:06:52;;;;;;;;;;;;;;;;;;5020493;28;19921;-79
2022/12/30 05:09:19;;;;;;;;;;;;;;;;;;5023860;28;19937;-78
2022/12/30 05:11:52;;;;;;;;;;;;;;;;;;5057867;28;19922;-79
2022/12/30 05:14:24;;;;;;;;;;;;;;;;;;5024467;28;19921;-80
2022/12/30 05:16:52;;;;;;;;;;;;;;;;;;5021685;28;20373;-80
2022/12/30 05:19:19;;;;;;;;;;;;;;;;;;5014171;28;20317;-79
2022/12/30 05:21:52;;;;;;;;;;;;;;;;;;5020592;28;20370;-79
2022/12/30 05:27:05;;;;;;;;;;;;;;;;;;5025110;28;19920;-79
2022/12/30 05:29:32;;;;;;;;;;;;;;;;;;5022336;28;19924;-79
2022/12/30 05:32:00;;;;;;;;;;;;;;;;;;5025783;28;19921;-79
2022/12/30 05:34:27;;;;;;;;;;;;;;;;;;5023187;28;19921;-79
2022/12/30 05:37:00;;;;;;;;;;;;;;;;;;5023194;28;19921;-78
2022/12/30 05:39:32;;;;;;;;;;;;;;;;;;5022868;28;19928;-79
2022/12/30 05:42:00;;;;;;;;;;;;;;;;;;5022139;28;19928;-79
2022/12/30 05:44:32;;;;;;;;;;;;;;;;;;5056032;28;19921;-80
2022/12/30 05:47:05;;;;;;;;;;;;;;;;;;5038115;28;19925;-78
2022/12/30 05:49:37;;;;;;;;;;;;;;;;;;5025516;28;19925;-79
2022/12/30 05:52:10;;;;;;;;;;;;;;;;;;5024275;28;19921;-78
2022/12/30 05:54:42;;;;;;;;;;;;;;;;;;5023425;28;19932;-78
2022/12/30 05:57:15;;;;;;;;;;;;;;;;;;5022562;28;19925;-79
2022/12/30 05:59:47;;;;;;;;;;;;;;;;;;5022840;28;19924;-79
2022/12/30 06:02:20;;;;;;;;;;;;;;;;;;5015433;28;19925;-80
2022/12/30 06:04:48;;;;;;;;;;;;;;;;;;5019632;28;19925;-79
2022/12/30 06:07:20;;;;;;;;;;;;;;;;;;5021429;28;19944;-79
2022/12/30 06:09:53;;;;;;;;;;;;;;;;;;5022794;28;20847;-79
2022/12/30 06:12:26;;;;;;;;;;;;;;;;;;5024395;28;20460;-79
2022/12/30 06:14:53;;;;;;;;;;;;;;;;;;5019797;28;19929;-79
2022/12/30 06:17:21;;;;;;;;;;;;;;;;;;5020527;28;19922;-80
2022/12/30 06:19:48;;;;;;;;;;;;;;;;;;5018017;28;19932;-79
2022/12/30 06:22:21;;;;;;;;;;;;;;;;;;5020901;28;19921;-79
2022/12/30 06:24:48;;;;;;;;;;;;;;;;;;5021100;28;20266;-78
2022/12/30 06:27:21;;;;;;;;;;;;;;;;;;5023297;28;19925;-79
2022/12/30 06:29:48;;;;;;;;;;;;;;;;;;5052278;28;19925;-79
2022/12/30 06:32:16;;;;;;;;;;;;;;;;;;5020155;28;20301;-78
2022/12/30 06:34:50;;;;;;;;;;;;;;;;;;5051291;28;19925;-79
2022/12/30 06:37:22;;;;;;;;;;;;;;;;;;5019516;28;19925;-79
2022/12/30 06:39:55;;;;;;;;;;;;;;;;;;5019348;28;20409;-80
2022/12/30 06:42:22;;;;;;;;;;;;;;;;;;5024407;28;20265;-78
2022/12/30 06:44:55;;;;;;;;;;;;;;;;;;5019942;28;19937;-79
2022/12/30 06:47:22;;;;;;;;;;;;;;;;;;5025272;28;19925;-79
2022/12/30 06:49:55;;;;;;;;;;;;;;;;;;5013320;28;19929;-79
2022/12/30 06:52:27;;;;;;;;;;;;;;;;;;5055893;28;19925;-78
2022/12/30 06:54:55;;;;;;;;;;;;;;;;;;5019968;28;19929;-79
2022/12/30 06:57:22;;;;;;;;;;;;;;;;;;5020586;28;19932;-79
2022/12/30 06:59:55;;;;;;;;;;;;;;;;;;5019974;28;19932;-79
2022/12/30 07:02:22;;;;;;;;;;;;;;;;;;5020158;28;19921;-79
2022/12/30 07:04:55;;;;;;;;;;;;;;;;;;5021408;28;19921;-79
2022/12/30 07:07:27;;;;;;;;;;;;;;;;;;5023180;28;19931;-79
2022/12/30 07:10:00;;;;;;;;;;;;;;;;;;5018377;28;20480;-79
2022/12/30 07:12:32;;;;;;;;;;;;;;;;;;5023226;28;19921;-79
2022/12/30 07:15:06;;;;;;;;;;;;;;;;;;5021440;28;20267;-79
2022/12/30 07:17:38;;;;;;;;;;;;;;;;;;5019396;28;19925;-79
2022/12/30 07:20:12;;;;;;;;;;;;;;;;;;5021746;28;19921;-78
2022/12/30 07:22:40;;;;;;;;;;;;;;;;;;5036006;28;19964;-79
2022/12/30 07:25:07;;;;;;;;;;;;;;;;;;5022272;28;19925;-80
2022/12/30 07:27:40;;;;;;;;;;;;;;;;;;5026698;28;19940;-79
2022/12/30 07:30:07;;;;;;;;;;;;;;;;;;5016555;28;20372;-79
2022/12/30 07:32:40;;;;;;;;;;;;;;;;;;5054065;28;20294;-79
2022/12/30 07:35:12;;;;;;;;;;;;;;;;;;5021448;28;19925;-79
2022/12/30 07:37:45;;;;;;;;;;;;;;;;;;5051167;28;20393;-80
2022/12/30 07:40:17;;;;;;;;;;;;;;;;;;5023783;28;20367;-79
2022/12/30 07:42:45;;;;;;;;;;;;;;;;;;5026886;28;20309;-79
2022/12/30 07:45:17;;;;;;;;;;;;;;;;;;5021038;28;19922;-79
2022/12/30 07:47:45;;;;;;;;;;;;;;;;;;5022323;28;20390;-79
2022/12/30 07:50:17;;;;;;;;;;;;;;;;;;5016955;28;19928;-80
2022/12/30 07:52:45;;;;;;;;;;;;;;;;;;5032721;28;19928;-79
2022/12/30 07:55:12;;;;;;;;;;;;;;;;;;5033934;28;19932;-79
2022/12/30 07:57:45;;;;;;;;;;;;;;;;;;5022843;28;19921;-79
2022/12/30 08:00:18;;;;;;;;;;;;;;;;;;5020944;28;19933;-79
2022/12/30 08:02:45;;;;;;;;;;;;;;;;;;5031541;28;19921;-79
2022/12/30 08:05:18;;;;;;;;;;;;;;;;;;5023477;28;19937;-79
2022/12/30 08:07:50;;;;;;;;;;;;;;;;;;5019515;28;19929;-79
2022/12/30 08:10:22;;;;;;;;;;;;;;;;;;5021959;28;19929;-79
2022/12/30 08:12:55;;;;;;;;;;;;;;;;;;5053430;28;19954;-79
2022/12/30 08:15:23;;;;;;;;;;;;;;;;;;5022814;28;19925;-79
2022/12/30 08:17:50;;;;;;;;;;;;;;;;;;5016285;28;19925;-79
2022/12/30 08:20:18;;;;;;;;;;;;;;;;;;5034686;28;19928;-80
2022/12/30 08:22:50;;;;;;;;;;;;;;;;;;5019457;28;19929;-79
2022/12/30 08:25:18;;;;;;;;;;;;;;;;;;5020743;28;19929;-80
2022/12/30 08:27:50;;;;;;;;;;;;;;;;;;5021145;28;20293;-79
2022/12/30 08:30:24;;;;;;;;;;;;;;;;;;5018707;28;21614;-79
2022/12/30 08:32:58;;;;;;;;;;;;;;;;;;5017623;28;19928;-79
2022/12/30 08:35:26;;;;;;;;;;;;;;;;;;5024538;28;19921;-79
2022/12/30 08:38:04;;;;;;;;;;;;;;;;;;5049343;28;19928;-80
2022/12/30 08:40:33;;;;;;;;;;;;;;;;;;5035637;28;19921;-79
2022/12/30 08:43:00;;;;;;;;;;;;;;;;;;5029441;28;19928;-80
2022/12/30 08:45:28;;;;;;;;;;;;;;;;;;5038301;28;19944;-79
2022/12/30 08:48:01;;;;;;;;;;;;;;;;;;5020106;28;20788;-79
2022/12/30 08:50:33;;;;;;;;;;;;;;;;;;5053425;28;19931;-79
2022/12/30 08:53:01;;;;;;;;;;;;;;;;;;5019226;28;19936;-79
2022/12/30 08:55:28;;;;;;;;;;;;;;;;;;5019851;28;20393;-79
2022/12/30 08:57:56;;;;;;;;;;;;;;;;;;5019570;28;19928;-79
2022/12/30 09:00:23;;;;;;;;;;;;;;;;;;5032659;28;19925;-79
2022/12/30 09:02:51;;;;;;;;;;;;;;;;;;5019519;28;19932;-79
2022/12/30 09:05:24;;;;;;;;;;;;;;;;;;5018297;28;19925;-78
2022/12/30 09:07:51;;;;;;;;;;;;;;;;;;5018709;28;19931;-79
2022/12/30 09:10:24;;;;;;;;;;;;;;;;;;5048301;28;19936;-79
2022/12/30 09:12:51;;;;;;;;;;;;;;;;;;5019200;28;20370;-79
2022/12/30 09:15:19;;;;;;;;;;;;;;;;;;5017722;28;19937;-79
2022/12/30 09:17:54;;;;;;;;;;;;;;;;;;5050300;28;19925;-79
2022/12/30 09:20:22;;;;;;;;;;;;;;;;;;5020134;28;20416;-79
2022/12/30 09:22:54;;;;;;;;;;;;;;;;;;5018411;28;19922;-79
2022/12/30 09:25:22;;;;;;;;;;;;;;;;;;5019372;28;20370;-79
2022/12/30 09:27:55;;;;;;;;;;;;;;;;;;5017119;28;19921;-79
2022/12/30 09:30:27;;;;;;;;;;;;;;;;;;5004074;28;19940;-79
2022/12/30 09:32:55;;;;;;;;;;;;;;;;;;5019026;28;19925;-79
2022/12/30 09:35:28;;;;;;;;;;;;;;;;;;5005144;28;20044;-80
2022/12/30 09:37:55;;;;;;;;;;;;;;;;;;5001155;28;19925;-79
2022/12/30 09:40:23;;;;;;;;;;;;;;;;;;5003458;28;19932;-80
2022/12/30 09:45:41;;;;;;;;;;;;;;;;;;4999790;28;19936;-79
2022/12/30 09:51:08;;;;;;;;;;;;;;;;;;5010559;28;19925;-80
2022/12/30 09:53:36;;;;;;;;;;;;;;;;;;5005323;28;19925;-80
2022/12/30 09:56:04;;;;;;;;;;;;;;;;;;4998636;28;19948;-80
2022/12/30 09:58:36;;;;;;;;;;;;;;;;;;4998825;28;20486;-81
2022/12/30 10:01:04;;;;;;;;;;;;;;;;;;5005060;28;19949;-80
2022/12/30 10:03:36;;;;;;;;;;;;;;;;;;5000530;28;19996;-79
2022/12/30 10:06:09;;;;;;;;;;;;;;;;;;5009475;28;20427;-79
2022/12/30 10:08:41;;;;;;;;;;;;;;;;;;5003021;28;19929;-81
2022/12/30 10:11:09;;;;;;;;;;;;;;;;;;5008340;28;19924;-81
2022/12/30 10:13:36;;;;;;;;;;;;;;;;;;5006546;28;20492;-80
2022/12/30 10:16:09;;;;;;;;;;;;;;;;;;5031984;28;19929;-79
2022/12/30 10:18:36;;;;;;;;;;;;;;;;;;5033307;28;19936;-79
2022/12/30 10:21:05;;;;;;;;;;;;;;;;;;5007609;28;19932;-80
2022/12/30 10:23:38;;;;;;;;;;;;;;;;;;5001968;28;19936;-80
2022/12/30 10:26:10;;;;;;;;;;;;;;;;;;5003830;28;19936;-79
2022/12/30 10:28:43;;;;;;;;;;;;;;;;;;5001256;28;19936;-80
2022/12/30 10:31:16;;;;;;;;;;;;;;;;;;4999559;28;19929;-79
2022/12/30 10:33:48;;;;;;;;;;;;;;;;;;5006415;28;19929;-80
2022/12/30 10:36:21;;;;;;;;;;;;;;;;;;5011430;28;19929;-80
2022/12/30 10:38:53;;;;;;;;;;;;;;;;;;5007480;28;19929;-80
2022/12/30 10:41:26;;;;;;;;;;;;;;;;;;5002152;28;19939;-79
2022/12/30 10:43:59;;;;;;;;;;;;;;;;;;5000204;28;19936;-80
2022/12/30 10:46:31;;;;;;;;;;;;;;;;;;4999014;28;19943;-79
2022/12/30 10:49:05;;;;;;;;;;;;;;;;;;5000650;28;19936;-80
2022/12/30 10:51:37;;;;;;;;;;;;;;;;;;5003321;28;19936;-80
2022/12/30 10:54:10;;;;;;;;;;;;;;;;;;5000756;28;19928;-80
2022/12/30 10:56:42;;;;;;;;;;;;;;;;;;5004690;28;19929;-81
2022/12/30 10:59:12;;;;;;;;;;;;;;;;;;4998600;28;19928;-82
2022/12/30 11:01:44;;;;;;;;;;;;;;;;;;5034328;28;19936;-84
2022/12/30 11:04:17;;;;;;;;;;;;;;;;;;5000069;28;19929;-80
2022/12/30 11:06:44;;;;;;;;;;;;;;;;;;4999304;28;20493;-79
2022/12/30 11:09:12;;;;;;;;;;;;;;;;;;5004617;28;19929;-81
2022/12/30 11:17:06;;;;;;;;;;;;;;;;;;5000199;28;19929;-80
2022/12/30 11:19:38;;;;;;;;;;;;;;;;;;4998054;28;19936;-81
2022/12/30 11:22:11;;;;;;;;;;;;;;;;;;5000161;28;19929;-81
2022/12/30 11:24:39;;;;;;;;;;;;;;;;;;5031921;28;20408;-81
2022/12/30 11:27:06;;;;;;;;;;;;;;;;;;5004654;28;20900;-81
2022/12/30 11:29:34;;;;;;;;;;;;;;;;;;5001134;28;19929;-80
2022/12/30 11:32:02;;;;;;;;;;;;;;;;;;4999297;28;19936;-80
2022/12/30 11:34:34;;;;;;;;;;;;;;;;;;5028404;28;19929;-80
2022/12/30 11:37:07;;;;;;;;;;;;;;;;;;5007290;28;20294;-81
2022/12/30 11:39:34;;;;;;;;;;;;;;;;;;5003065;28;19929;-81
2022/12/30 11:42:02;;;;;;;;;;;;;;;;;;4996630;28;19929;-80
2022/12/30 11:44:34;;;;;;;;;;;;;;;;;;4997432;28;19929;-82
2022/12/30 11:47:02;;;;;;;;;;;;;;;;;;5026535;28;19925;-80
2022/12/30 11:49:34;;;;;;;;;;;;;;;;;;4998819;28;19925;-80
2022/12/30 11:52:07;;;;;;;;;;;;;;;;;;5003140;28;19936;-80
2022/12/30 11:54:35;;;;;;;;;;;;;;;;;;5005369;28;19929;-81
2022/12/30 11:57:07;;;;;;;;;;;;;;;;;;5001843;28;19929;-80
2022/12/30 11:59:35;;;;;;;;;;;;;;;;;;4995988;28;19936;-80
2022/12/30 12:02:02;;;;;;;;;;;;;;;;;;5000807;28;19936;-80
2022/12/30 12:04:35;;;;;;;;;;;;;;;;;;5004750;28;19929;-79
2022/12/30 12:07:03;;;;;;;;;;;;;;;;;;5004266;28;20606;-81
2022/12/30 12:09:35;;;;;;;;;;;;;;;;;;5003546;28;19936;-79
2022/12/30 12:12:07;;;;;;;;;;;;;;;;;;4997614;28;19928;-80
2022/12/30 12:14:40;;;;;;;;;;;;;;;;;;4998930;28;19929;-81
2022/12/30 12:17:13;;;;;;;;;;;;;;;;;;5007873;28;19948;-81
2022/12/30 12:19:40;;;;;;;;;;;;;;;;;;5001419;28;19936;-80
2022/12/30 12:22:13;;;;;;;;;;;;;;;;;;4998625;28;19936;-80
2022/12/30 12:24:40;;;;;;;;;;;;;;;;;;5000776;28;19929;-81
2022/12/30 12:27:08;;;;;;;;;;;;;;;;;;4997462;28;20548;-80
2022/12/30 12:29:36;;;;;;;;;;;;;;;;;;4994340;28;19936;-80
2022/12/30 12:32:08;;;;;;;;;;;;;;;;;;4998187;28;19936;-82
2022/12/30 12:34:41;;;;;;;;;;;;;;;;;;5004137;28;19933;-81
2022/12/30 12:37:08;;;;;;;;;;;;;;;;;;5003613;28;19925;-81
2022/12/30 12:39:41;;;;;;;;;;;;;;;;;;5035805;28;20516;-80
2022/12/30 12:42:13;;;;;;;;;;;;;;;;;;5008511;28;19929;-81
2022/12/30 12:44:46;;;;;;;;;;;;;;;;;;5001147;28;19929;-80
2022/12/30 12:47:13;;;;;;;;;;;;;;;;;;5001529;28;20546;-81
2022/12/30 12:49:46;;;;;;;;;;;;;;;;;;5007754;28;20542;-80
2022/12/30 12:52:14;;;;;;;;;;;;;;;;;;5002840;28;19929;-81
2022/12/30 12:54:44;;;;;;;;;;;;;;;;;;5000329;28;19929;-80
2022/12/30 12:57:12;;;;;;;;;;;;;;;;;;5012187;28;19940;-81
2022/12/30 12:59:39;;;;;;;;;;;;;;;;;;5005366;28;19929;-80
2022/12/30 13:02:07;;;;;;;;;;;;;;;;;;5012606;28;19929;-79
2022/12/30 13:04:39;;;;;;;;;;;;;;;;;;5009755;28;19928;-81
2022/12/30 13:07:12;;;;;;;;;;;;;;;;;;5000622;28;19929;-80
2022/12/30 13:09:39;;;;;;;;;;;;;;;;;;5011659;28;20324;-80
2022/12/30 13:12:07;;;;;;;;;;;;;;;;;;5009457;28;20413;-81
2022/12/30 13:14:34;;;;;;;;;;;;;;;;;;5001527;28;19936;-82
2022/12/30 13:17:07;;;;;;;;;;;;;;;;;;5003424;28;19929;-81
2022/12/30 13:19:39;;;;;;;;;;;;;;;;;;5007537;28;19936;-81
2022/12/30 13:22:07;;;;;;;;;;;;;;;;;;5010801;28;19937;-80
2022/12/30 13:24:35;;;;;;;;;;;;;;;;;;5033713;28;19936;-81
2022/12/30 13:27:07;;;;;;;;;;;;;;;;;;5007917;28;19929;-81
2022/12/30 13:29:35;;;;;;;;;;;;;;;;;;5004842;28;19936;-81
2022/12/30 13:32:07;;;;;;;;;;;;;;;;;;4999661;28;19933;-81
2022/12/30 13:34:35;;;;;;;;;;;;;;;;;;5007840;28;19936;-80
2022/12/30 13:37:07;;;;;;;;;;;;;;;;;;5034992;28;19929;-81
2022/12/30 13:39:40;;;;;;;;;;;;;;;;;;5001090;28;19929;-81
2022/12/30 13:42:12;;;;;;;;;;;;;;;;;;5000666;28;20540;-81
2022/12/30 13:44:41;;;;;;;;;;;;;;;;;;4998461;28;20366;-80
2022/12/30 13:47:14;;;;;;;;;;;;;;;;;;5006545;28;20432;-81
2022/12/30 13:49:46;;;;;;;;;;;;;;;;;;5005220;28;19929;-84
2022/12/30 13:52:14;;;;;;;;;;;;;;;;;;5004029;28;19936;-81
2022/12/30 13:54:41;;;;;;;;;;;;;;;;;;5021655;28;19929;-80
2022/12/30 13:57:09;;;;;;;;;;;;;;;;;;5011791;28;19929;-80
2022/12/30 13:59:36;;;;;;;;;;;;;;;;;;4999412;28;19929;-80
2022/12/30 14:02:04;;;;;;;;;;;;;;;;;;5010011;28;19940;-82
2022/12/30 14:04:36;;;;;;;;;;;;;;;;;;5001590;28;21773;-81
2022/12/30 14:07:04;;;;;;;;;;;;;;;;;;5010778;28;19929;-81
2022/12/30 14:09:31;;;;;;;;;;;;;;;;;;4999289;28;20810;-81
2022/12/30 14:11:59;;;;;;;;;;;;;;;;;;5007987;28;20087;-82
2022/12/30 14:14:26;;;;;;;;;;;;;;;;;;5008561;28;19940;-80
2022/12/30 14:16:54;;;;;;;;;;;;;;;;;;5006792;28;19936;-84
2022/12/30 14:19:26;;;;;;;;;;;;;;;;;;5011968;28;19928;-81
2022/12/30 14:21:54;;;;;;;;;;;;;;;;;;5001380;28;19940;-80
2022/12/30 14:24:21;;;;;;;;;;;;;;;;;;5005529;28;21568;-80
2022/12/30 14:26:54;;;;;;;;;;;;;;;;;;5006659;28;20794;-85
2022/12/30 14:29:21;;;;;;;;;;;;;;;;;;5005590;28;19929;-80
2022/12/30 14:31:54;;;;;;;;;;;;;;;;;;5006936;28;19929;-82
2022/12/30 14:34:21;;;;;;;;;;;;;;;;;;5004464;28;19929;-81
2022/12/30 14:36:49;;;;;;;;;;;;;;;;;;5011588;28;19929;-80
2022/12/30 14:39:21;;;;;;;;;;;;;;;;;;5001793;28;19932;-81
2022/12/30 14:41:54;;;;;;;;;;;;;;;;;;5000670;28;19933;-79
2022/12/30 14:44:27;;;;;;;;;;;;;;;;;;5003223;28;19935;-82
2022/12/30 14:46:59;;;;;;;;;;;;;;;;;;5010156;28;19939;-80
2022/12/30 14:49:27;;;;;;;;;;;;;;;;;;5028072;28;19932;-80
2022/12/30 14:52:00;;;;;;;;;;;;;;;;;;5002249;28;19929;-81
2022/12/30 14:54:27;;;;;;;;;;;;;;;;;;5010414;28;20883;-82
2022/12/30 14:57:00;;;;;;;;;;;;;;;;;;4999450;28;19929;-81
2022/12/30 14:59:35;;;;;;;;;;;;;;;;;;4999326;28;19929;-81
2022/12/30 15:02:03;;;;;;;;;;;;;;;;;;5002513;28;19929;-82
2022/12/30 15:04:31;;;;;;;;;;;;;;;;;;5037850;28;19925;-82
2022/12/30 15:06:58;;;;;;;;;;;;;;;;;;5000466;28;19936;-83
2022/12/30 15:09:28;;;;;;;;;;;;;;;;;;5007385;28;19928;-82
2022/12/30 15:12:01;;;;;;;;;;;;;;;;;;5006132;28;21033;-81
2022/12/30 15:14:29;;;;;;;;;;;;;;;;;;5003304;28;19929;-81
2022/12/30 15:16:57;;;;;;;;;;;;;;;;;;5003545;28;20752;-80
2022/12/30 15:19:27;;;;;;;;;;;;;;;;;;4993288;28;19936;-81
2022/12/30 15:21:57;;;;;;;;;;;;;;;;;;4997467;28;19929;-81
2022/12/30 15:24:25;;;;;;;;;;;;;;;;;;5005026;28;19929;-81
2022/12/30 15:26:58;;;;;;;;;;;;;;;;;;5000078;28;19936;-81
2022/12/30 15:29:25;;;;;;;;;;;;;;;;;;4998073;28;19935;-80
2022/12/30 15:31:53;;;;;;;;;;;;;;;;;;5033306;28;19936;-82
2022/12/30 15:34:21;;;;;;;;;;;;;;;;;;5003268;28;19928;-82
2022/12/30 15:36:50;;;;;;;;;;;;;;;;;;4997360;28;19968;-80
2022/12/30 15:39:19;;;;;;;;;;;;;;;;;;4998314;28;20627;-81
2022/12/30 15:41:46;;;;;;;;;;;;;;;;;;5002590;28;19936;-81
2022/12/30 15:44:19;;;;;;;;;;;;;;;;;;5010004;28;19928;-80
2022/12/30 15:46:47;;;;;;;;;;;;;;;;;;5017649;28;20322;-81
2022/12/30 15:49:14;;;;;;;;;;;;;;;;;;5020266;28;19925;-82
2022/12/30 15:51:42;;;;;;;;;;;;;;;;;;5017510;28;19932;-81
2022/12/30 15:54:14;;;;;;;;;;;;;;;;;;5003075;28;19929;-81
2022/12/30 15:56:43;;;;;;;;;;;;;;;;;;4997160;28;19929;-81
2022/12/30 15:59:11;;;;;;;;;;;;;;;;;;4997706;28;19931;-81
2022/12/30 16:01:38;;;;;;;;;;;;;;;;;;5002860;28;19925;-81
2022/12/30 16:04:11;;;;;;;;;;;;;;;;;;4997646;28;19929;-81
2022/12/30 16:06:43;;;;;;;;;;;;;;;;;;4999077;28;20617;-80
2022/12/30 16:09:11;;;;;;;;;;;;;;;;;;4998600;28;19968;-81
2022/12/30 16:11:38;;;;;;;;;;;;;;;;;;5003752;28;19928;-81
2022/12/30 16:14:06;;;;;;;;;;;;;;;;;;4997228;28;19940;-81
2022/12/30 16:16:34;;;;;;;;;;;;;;;;;;5016406;28;19929;-81
2022/12/30 16:19:07;;;;;;;;;;;;;;;;;;5003463;28;19929;-80
2022/12/30 16:21:39;;;;;;;;;;;;;;;;;;5013269;28;19936;-80
2022/12/30 16:24:11;;;;;;;;;;;;;;;;;;5007252;28;19931;-81
2022/12/30 16:26:44;;;;;;;;;;;;;;;;;;5006752;28;19930;-81
2022/12/30 16:29:11;;;;;;;;;;;;;;;;;;5002351;28;20917;-82
2022/12/30 16:31:44;;;;;;;;;;;;;;;;;;5002585;28;19929;-80
2022/12/30 16:34:11;;;;;;;;;;;;;;;;;;5005437;28;19936;-81
2022/12/30 16:36:44;;;;;;;;;;;;;;;;;;5009510;28;20656;-81
2022/12/30 16:39:17;;;;;;;;;;;;;;;;;;5007454;28;20693;-81
2022/12/30 16:41:44;;;;;;;;;;;;;;;;;;5009408;28;19928;-81
2022/12/30 16:44:12;;;;;;;;;;;;;;;;;;5007654;28;19935;-81
2022/12/30 16:46:39;;;;;;;;;;;;;;;;;;5008997;28;19947;-81
2022/12/30 16:49:12;;;;;;;;;;;;;;;;;;5015600;28;19929;-84
2022/12/30 16:51:39;;;;;;;;;;;;;;;;;;5009513;28;19928;-81
2022/12/30 16:54:12;;;;;;;;;;;;;;;;;;5001729;28;19937;-81
2022/12/30 16:56:44;;;;;;;;;;;;;;;;;;5012503;28;19928;-81
2022/12/30 16:59:17;;;;;;;;;;;;;;;;;;5007342;28;19936;-81
2022/12/30 17:01:50;;;;;;;;;;;;;;;;;;5003602;28;20396;-82
2022/12/30 17:04:22;;;;;;;;;;;;;;;;;;5011032;28;20473;-81
2022/12/30 17:06:50;;;;;;;;;;;;;;;;;;5005954;28;20521;-82
2022/12/30 17:12:08;;;;;;;;;;;;;;;;;;5002436;28;19936;-82
2022/12/30 17:14:41;;;;;;;;;;;;;;;;;;5001108;28;20382;-81
2022/12/30 17:17:08;;;;;;;;;;;;;;;;;;5005986;28;19936;-81
2022/12/30 17:19:36;;;;;;;;;;;;;;;;;;5004017;28;19929;-81
2022/12/30 17:22:08;;;;;;;;;;;;;;;;;;5033189;28;20469;-80
2022/12/30 17:24:36;;;;;;;;;;;;;;;;;;5000662;28;19929;-81
2022/12/30 17:27:08;;;;;;;;;;;;;;;;;;5005723;28;19929;-80
2022/12/30 17:29:36;;;;;;;;;;;;;;;;;;5011337;28;19932;-80
2022/12/30 17:32:08;;;;;;;;;;;;;;;;;;4997711;28;19929;-81
2022/12/30 17:34:41;;;;;;;;;;;;;;;;;;4994894;28;21756;-82
2022/12/30 17:37:13;;;;;;;;;;;;;;;;;;5007075;28;20669;-82
2022/12/30 17:39:41;;;;;;;;;;;;;;;;;;5005124;28;19940;-81
2022/12/30 17:42:08;;;;;;;;;;;;;;;;;;5007506;28;19936;-81
2022/12/30 17:44:36;;;;;;;;;;;;;;;;;;4998958;28;19928;-81
2022/12/30 17:47:08;;;;;;;;;;;;;;;;;;5001759;28;20321;-81
2022/12/30 17:49:41;;;;;;;;;;;;;;;;;;4998740;28;19929;-81
2022/12/30 17:52:08;;;;;;;;;;;;;;;;;;5004858;28;19929;-81
2022/12/30 17:54:36;;;;;;;;;;;;;;;;;;5005185;28;21277;-80
2022/12/30 17:57:08;;;;;;;;;;;;;;;;;;5009125;28;19925;-81
2022/12/30 17:59:36;;;;;;;;;;;;;;;;;;5002545;28;19925;-81
2022/12/30 18:02:03;;;;;;;;;;;;;;;;;;4997827;28;19951;-81
2022/12/30 18:04:36;;;;;;;;;;;;;;;;;;5019640;28;19940;-80
2022/12/30 18:07:03;;;;;;;;;;;;;;;;;;5004040;28;19953;-81
2022/12/30 18:09:33;;;;;;;;;;;;;;;;;;5003174;28;20627;-80
2022/12/30 18:12:06;;;;;;;;;;;;;;;;;;4999731;28;19929;-81